Time;durP1;ratioP1;P1;durP2;ratioP2;P2;SDS_P1;SDS_P2;PMS_P1;PMS_P2;Temp;Humidity;BMP_temperature;BMP_pressure;BME280_temperature;BME280_humidity;BME280_pressure;Samples;Min_cycle;Max_cycle;Signal;HPM_P1;HPM_P2
2022/09/18 00:02:04;;;;;;;10.00;3.60;;;11.30;99.90;;;;;;5073882;28;20634;-60
2022/09/18 00:04:32;;;;;;;7.23;3.03;;;11.30;99.90;;;;;;5073819;28;20249;-60
2022/09/18 00:07:03;;;;;;;7.00;3.33;;;11.20;99.90;;;;;;5074022;28;20214;-60
2022/09/18 00:09:31;;;;;;;9.13;3.10;;;11.20;99.90;;;;;;5073539;28;20283;-60
2022/09/18 00:12:00;;;;;;;7.53;3.00;;;11.20;99.90;;;;;;5073735;28;20215;-60
2022/09/18 00:14:28;;;;;;;8.77;2.93;;;11.10;99.90;;;;;;5073683;28;20655;-60
2022/09/18 00:16:57;;;;;;;6.43;3.13;;;11.10;99.90;;;;;;5073493;28;20243;-60
2022/09/18 00:19:28;;;;;;;4.47;2.80;;;11.00;99.90;;;;;;5073473;28;20231;-60
2022/09/18 00:21:57;;;;;;;6.00;3.27;;;11.00;99.90;;;;;;5073513;28;20538;-61
2022/09/18 00:24:25;;;;;;;7.20;2.83;;;11.00;99.90;;;;;;5072382;28;20195;-60
2022/09/18 00:26:53;;;;;;;5.93;2.90;;;11.00;99.90;;;;;;5073987;28;20638;-60
2022/09/18 00:29:22;;;;;;;6.77;2.80;;;10.90;99.90;;;;;;5073940;28;20198;-60
2022/09/18 00:31:50;;;;;;;7.67;3.40;;;10.90;99.90;;;;;;5073324;28;20212;-60
2022/09/18 00:34:18;;;;;;;4.17;2.90;;;10.80;99.90;;;;;;5072059;28;20210;-60
2022/09/18 00:36:49;;;;;;;8.53;2.90;;;10.80;99.90;;;;;;5073647;28;20184;-61
2022/09/18 00:39:17;;;;;;;5.53;3.00;;;10.80;99.90;;;;;;5073331;28;20196;-60
2022/09/18 00:41:45;;;;;;;2.83;2.30;;;10.80;99.90;;;;;;5073235;28;20180;-61
2022/09/18 00:44:37;;;;;;;5.80;3.03;;;10.70;99.90;;;;;;5073446;28;20196;-60
2022/09/18 00:47:22;;;;;;;5.83;2.83;;;10.70;99.90;;;;;;5072295;28;20519;-60
2022/09/18 00:49:56;;;;;;;4.03;2.50;;;10.60;99.90;;;;;;5072267;28;20192;-60
2022/09/18 00:52:29;;;;;;;4.30;2.50;;;10.60;99.90;;;;;;5073180;28;20214;-61
2022/09/18 00:55:02;;;;;;;4.37;2.60;;;10.60;99.90;;;;;;5073378;28;20203;-60
2022/09/18 00:57:33;;;;;;;7.07;2.60;;;10.60;99.90;;;;;;5072958;28;20194;-61
2022/09/18 01:00:09;;;;;;;4.77;2.20;;;10.60;99.90;;;;;;5073246;28;20185;-60
2022/09/18 01:11:27;;;;;;;10.90;2.40;;;10.60;99.90;;;;;;5071506;28;20226;-61
2022/09/18 01:14:08;;;;;;;4.30;2.30;;;10.60;99.90;;;;;;5072789;28;20215;-60
2022/09/18 01:16:44;;;;;;;3.30;2.57;;;10.60;99.90;;;;;;5072765;28;20207;-61
2022/09/18 01:19:25;;;;;;;3.87;2.37;;;10.60;99.90;;;;;;5071710;28;20195;-61
2022/09/18 01:22:04;;;;;;;9.17;2.13;;;10.50;99.90;;;;;;5073025;28;20535;-61
2022/09/18 01:25:02;;;;;;;7.70;1.90;;;10.50;99.90;;;;;;5075585;28;20192;-61
2022/09/18 01:27:39;;;;;;;8.93;1.97;;;10.50;99.90;;;;;;5074826;28;20208;-60
2022/09/18 01:30:12;;;;;;;7.27;2.07;;;10.50;99.90;;;;;;5076929;28;20271;-60
2022/09/18 01:32:47;;;;;;;5.10;2.33;;;10.50;99.90;;;;;;5076665;28;20212;-60
2022/09/18 01:35:21;;;;;;;3.27;1.90;;;10.50;99.90;;;;;;5076556;28;20554;-61
2022/09/18 01:38:13;;;;;;;3.53;2.10;;;10.50;99.90;;;;;;5075322;28;20192;-60
2022/09/18 01:40:47;;;;;;;6.83;2.40;;;10.50;99.90;;;;;;5076589;28;20710;-61
2022/09/18 01:43:18;;;;;;;5.13;2.27;;;10.40;99.90;;;;;;5076430;28;20197;-61
2022/09/18 01:45:53;;;;;;;6.37;1.90;;;10.40;99.90;;;;;;5076193;28;20250;-60
2022/09/18 01:48:26;;;;;;;4.83;2.23;;;10.40;99.90;;;;;;5075064;28;20263;-61
2022/09/18 01:50:59;;;;;;;3.60;2.30;;;10.40;99.90;;;;;;5075133;28;20210;-60
2022/09/18 01:53:33;;;;;;;5.03;2.40;;;10.40;99.90;;;;;;5056443;28;20200;-60
2022/09/18 01:56:06;;;;;;;3.70;2.17;;;10.40;99.90;;;;;;5056488;28;20200;-60
2022/09/18 01:58:35;;;;;;;5.13;2.13;;;10.40;99.90;;;;;;5056595;28;20189;-61
2022/09/18 02:01:11;;;;;;;6.83;2.13;;;10.30;99.90;;;;;;5055494;28;20283;-61
2022/09/18 02:03:45;;;;;;;5.47;2.10;;;10.30;99.90;;;;;;5056920;28;20181;-61
2022/09/18 02:06:16;;;;;;;5.60;2.10;;;10.30;99.90;;;;;;5056030;28;20193;-61
2022/09/18 02:08:47;;;;;;;3.50;2.20;;;10.30;99.90;;;;;;5056076;28;20535;-61
2022/09/18 02:11:18;;;;;;;2.37;2.00;;;10.30;99.90;;;;;;5056454;28;20271;-60
2022/09/18 02:13:51;;;;;;;3.90;2.13;;;10.30;99.90;;;;;;5056466;28;20584;-61
2022/09/18 02:16:28;;;;;;;3.47;2.17;;;10.20;99.90;;;;;;5055877;28;20574;-60
2022/09/18 02:19:00;;;;;;;3.83;2.33;;;10.20;99.90;;;;;;5056475;28;20571;-61
2022/09/18 02:21:30;;;;;;;5.33;2.20;;;10.20;99.90;;;;;;5054891;28;20284;-60
2022/09/18 02:24:03;;;;;;;2.40;2.20;;;10.20;99.90;;;;;;5055864;28;20682;-61
2022/09/18 02:26:33;;;;;;;2.43;2.30;;;10.20;99.90;;;;;;5037739;28;20197;-61
2022/09/18 02:29:03;;;;;;;2.93;2.30;;;10.20;99.90;;;;;;5055829;28;20177;-62
2022/09/18 02:31:33;;;;;;;5.27;2.20;;;10.10;99.90;;;;;;5071280;28;20195;-61
2022/09/18 02:34:02;;;;;;;3.63;2.43;;;10.10;99.90;;;;;;5062371;28;20207;-61
2022/09/18 02:36:50;;;;;;;2.60;2.43;;;10.10;99.90;;;;;;5074246;28;20193;-62
2022/09/18 02:39:35;;;;;;;3.70;2.43;;;10.00;99.90;;;;;;5075217;28;20192;-61
2022/09/18 02:42:17;;;;;;;5.23;2.73;;;10.00;99.90;;;;;;5075479;28;20193;-61
2022/09/18 02:44:57;;;;;;;11.63;3.10;;;10.00;99.90;;;;;;5075501;28;20527;-61
2022/09/18 02:47:36;;;;;;;5.90;2.60;;;9.90;99.90;;;;;;5075921;28;20218;-61
2022/09/18 02:50:14;;;;;;;12.53;3.10;;;9.90;99.90;;;;;;5075549;28;20642;-61
2022/09/18 02:52:50;;;;;;;5.17;2.80;;;9.90;99.90;;;;;;5074446;28;20243;-61
2022/09/18 02:55:24;;;;;;;3.67;3.10;;;9.90;99.90;;;;;;5075347;28;20653;-61
2022/09/18 02:57:58;;;;;;;4.13;2.70;;;10.00;99.90;;;;;;5075140;28;20539;-60
2022/09/18 03:00:29;;;;;;;6.50;2.80;;;10.00;99.90;;;;;;5074951;28;20191;-61
2022/09/18 03:02:59;;;;;;;6.27;2.73;;;10.00;99.90;;;;;;5075193;28;20737;-61
2022/09/18 03:05:28;;;;;;;3.97;2.83;;;10.00;99.90;;;;;;5074895;28;20658;-60
2022/09/18 03:07:56;;;;;;;4.97;2.93;;;10.10;99.90;;;;;;5074911;28;20211;-61
2022/09/18 03:10:25;;;;;;;3.97;2.80;;;10.10;99.90;;;;;;5075002;28;20275;-60
2022/09/18 03:12:53;;;;;;;5.07;2.70;;;10.10;99.90;;;;;;5073672;28;20238;-60
2022/09/18 03:15:23;;;;;;;6.23;3.00;;;10.10;99.90;;;;;;5075037;28;20721;-61
2022/09/18 03:17:51;;;;;;;4.43;2.80;;;10.10;99.90;;;;;;5074879;28;20190;-61
2022/09/18 03:20:20;;;;;;;5.20;2.80;;;10.10;99.90;;;;;;5073768;28;20196;-61
2022/09/18 03:22:49;;;;;;;3.23;3.03;;;10.10;99.90;;;;;;5075087;28;20188;-61
2022/09/18 03:25:18;;;;;;;14.07;3.23;;;10.00;99.90;;;;;;5074596;28;20196;-61
2022/09/18 03:27:46;;;;;;;4.47;3.17;;;10.00;99.90;;;;;;5074612;28;20642;-61
2022/09/18 03:30:15;;;;;;;7.53;3.50;;;10.00;99.90;;;;;;5074365;28;20196;-61
2022/09/18 03:32:43;;;;;;;11.17;3.30;;;10.00;99.90;;;;;;5074089;28;20697;-61
2022/09/18 03:35:11;;;;;;;5.23;3.60;;;10.00;99.90;;;;;;5074708;28;20192;-61
2022/09/18 03:37:41;;;;;;;3.27;2.77;;;10.00;99.90;;;;;;5074247;28;20706;-61
2022/09/18 03:40:09;;;;;;;5.50;3.20;;;10.10;99.90;;;;;;5072755;28;20231;-61
2022/09/18 03:42:38;;;;;;;4.60;3.00;;;10.10;99.90;;;;;;5074084;28;20267;-61
2022/09/18 03:45:07;;;;;;;4.10;3.07;;;10.10;99.90;;;;;;5074457;28;20199;-60
2022/09/18 03:47:35;;;;;;;4.27;3.07;;;10.10;99.90;;;;;;5074023;28;20188;-60
2022/09/18 03:54:56;;;;;;;5.47;3.10;;;10.10;99.90;;;;;;5054398;28;20631;-60
2022/09/18 04:02:07;;;;;;;4.17;3.13;;;10.10;99.90;;;;;;5073863;28;20178;-60
2022/09/18 04:04:35;;;;;;;3.23;2.93;;;10.10;99.90;;;;;;5072643;28;20192;-61
2022/09/18 04:07:04;;;;;;;4.13;2.83;;;10.10;99.90;;;;;;5073988;28;20207;-60
2022/09/18 04:09:32;;;;;;;5.63;3.03;;;10.10;99.90;;;;;;5072912;28;20188;-61
2022/09/18 04:12:02;;;;;;;3.20;3.00;;;10.00;99.90;;;;;;5072366;28;20188;-61
2022/09/18 04:14:31;;;;;;;4.50;2.90;;;10.00;99.90;;;;;;5072924;28;20204;-60
2022/09/18 04:16:59;;;;;;;5.63;2.90;;;10.00;99.90;;;;;;5073390;28;20216;-60
2022/09/18 04:19:27;;;;;;;3.33;2.77;;;9.90;99.90;;;;;;5073882;28;20192;-61
2022/09/18 04:21:58;;;;;;;5.07;3.40;;;9.90;99.90;;;;;;5073802;28;20191;-60
2022/09/18 04:24:27;;;;;;;3.83;3.27;;;9.90;99.90;;;;;;5072954;28;20639;-61
2022/09/18 04:26:55;;;;;;;7.43;3.07;;;9.90;99.90;;;;;;5073383;28;20188;-60
2022/09/18 04:29:25;;;;;;;6.47;2.90;;;9.90;99.90;;;;;;5072112;28;20203;-60
2022/09/18 04:31:53;;;;;;;3.03;2.80;;;9.90;99.90;;;;;;5073747;28;20203;-61
2022/09/18 04:34:23;;;;;;;3.30;3.10;;;9.80;99.90;;;;;;5073251;28;20686;-61
2022/09/18 04:36:51;;;;;;;3.50;2.97;;;9.80;99.90;;;;;;5073508;28;20516;-61
2022/09/18 04:39:20;;;;;;;4.93;2.93;;;9.80;99.90;;;;;;5073150;28;20193;-60
2022/09/18 04:46:05;;;;;;;3.20;2.90;;;9.70;99.90;;;;;;5072060;28;20183;-61
2022/09/18 04:48:33;;;;;;;4.13;2.50;;;9.70;99.90;;;;;;5071961;28;20188;-61
2022/09/18 04:51:02;;;;;;;5.23;2.70;;;9.70;99.90;;;;;;5073388;28;20205;-61
2022/09/18 04:53:30;;;;;;;5.83;3.03;;;9.70;99.90;;;;;;5072357;28;20588;-60
2022/09/18 04:55:59;;;;;;;4.10;2.80;;;9.70;99.90;;;;;;5073290;28;20198;-61
2022/09/18 04:58:27;;;;;;;4.27;2.80;;;9.70;99.90;;;;;;5074409;28;20192;-60
2022/09/18 05:00:58;;;;;;;3.67;2.53;;;9.70;99.90;;;;;;5076079;28;20196;-60
2022/09/18 05:03:28;;;;;;;3.00;2.77;;;9.80;99.90;;;;;;5077460;28;20198;-60
2022/09/18 05:05:57;;;;;;;3.50;2.70;;;9.80;99.90;;;;;;5076094;28;20191;-61
2022/09/18 05:08:25;;;;;;;4.13;2.80;;;9.80;99.90;;;;;;5077698;28;20273;-60
2022/09/18 05:10:54;;;;;;;3.30;3.00;;;9.80;99.90;;;;;;5077509;28;20658;-60
2022/09/18 05:13:22;;;;;;;5.87;2.77;;;9.80;99.90;;;;;;5076898;28;20207;-60
2022/09/18 05:15:54;;;;;;;7.60;3.10;;;9.80;99.90;;;;;;5077399;28;20203;-61
2022/09/18 05:18:23;;;;;;;2.60;2.40;;;9.80;99.90;;;;;;5077084;28;20192;-61
2022/09/18 05:20:54;;;;;;;6.00;3.87;;;9.80;99.90;;;;;;5077139;28;20551;-61
2022/09/18 05:23:22;;;;;;;6.03;3.00;;;9.90;99.90;;;;;;5076905;28;20188;-61
2022/09/18 05:25:50;;;;;;;2.83;2.50;;;9.90;99.90;;;;;;5077476;28;20282;-61
2022/09/18 05:28:18;;;;;;;3.23;2.90;;;10.00;99.90;;;;;;5076940;28;20220;-61
2022/09/18 05:30:47;;;;;;;3.57;2.80;;;10.00;99.90;;;;;;5076994;28;20651;-61
2022/09/18 05:33:15;;;;;;;3.13;2.83;;;10.00;99.90;;;;;;5075421;28;20621;-60
2022/09/18 05:35:43;;;;;;;3.27;3.00;;;10.10;99.90;;;;;;5077000;28;20200;-61
2022/09/18 05:38:13;;;;;;;6.10;2.90;;;10.10;99.90;;;;;;5076797;28;20211;-60
2022/09/18 05:40:42;;;;;;;2.90;2.80;;;10.10;99.90;;;;;;5076482;28;20228;-61
2022/09/18 05:43:10;;;;;;;3.93;3.30;;;10.10;99.90;;;;;;5075936;28;20194;-61
2022/09/18 05:45:39;;;;;;;3.10;2.83;;;10.10;99.90;;;;;;5076686;28;20546;-60
2022/09/18 05:48:07;;;;;;;3.97;2.60;;;10.10;99.90;;;;;;5076310;28;20184;-61
2022/09/18 05:50:36;;;;;;;3.77;2.87;;;10.20;99.90;;;;;;5075537;28;20196;-61
2022/09/18 05:53:06;;;;;;;4.83;2.53;;;10.20;99.90;;;;;;5076171;28;20207;-61
2022/09/18 05:55:36;;;;;;;5.90;2.90;;;10.30;99.90;;;;;;5076306;28;20218;-60
2022/09/18 05:58:06;;;;;;;2.80;2.57;;;10.30;99.90;;;;;;5076221;28;20192;-61
2022/09/18 06:00:35;;;;;;;5.17;2.57;;;10.40;99.90;;;;;;5076086;28;20195;-61
2022/09/18 06:03:05;;;;;;;2.97;2.67;;;10.50;99.90;;;;;;5074756;28;20578;-61
2022/09/18 06:05:36;;;;;;;4.80;2.50;;;10.60;99.90;;;;;;5076175;28;20188;-60
2022/09/18 06:08:06;;;;;;;5.47;2.30;;;10.60;99.90;;;;;;5076464;28;20215;-60
2022/09/18 06:10:38;;;;;;;3.33;2.53;;;10.70;99.90;;;;;;5057806;28;20199;-60
2022/09/18 06:13:09;;;;;;;10.47;2.80;;;10.80;99.90;;;;;;5076067;28;20196;-60
2022/09/18 06:15:38;;;;;;;2.70;2.50;;;10.90;99.90;;;;;;5075782;28;20278;-60
2022/09/18 06:18:08;;;;;;;4.23;2.43;;;10.90;99.90;;;;;;5074585;28;20367;-60
2022/09/18 06:20:36;;;;;;;4.37;2.37;;;11.00;99.90;;;;;;5074466;28;20554;-60
2022/09/18 06:23:04;;;;;;;4.33;2.20;;;11.10;99.90;;;;;;5076255;28;20543;-61
2022/09/18 06:25:33;;;;;;;3.57;2.27;;;11.20;99.90;;;;;;5074812;28;20634;-60
2022/09/18 06:28:05;;;;;;;4.13;2.67;;;11.20;99.90;;;;;;5075739;28;20192;-60
2022/09/18 06:30:34;;;;;;;5.00;2.80;;;11.20;99.90;;;;;;5076070;28;20188;-60
2022/09/18 06:33:05;;;;;;;4.10;2.30;;;11.30;99.90;;;;;;5075908;28;20192;-60
2022/09/18 06:35:34;;;;;;;2.70;2.50;;;11.30;99.90;;;;;;5075802;28;20637;-63
2022/09/18 06:47:26;;;;;;;2.57;2.37;;;11.60;99.90;;;;;;5055560;28;20173;-60
2022/09/18 06:49:54;;;;;;;3.77;2.57;;;11.70;99.90;;;;;;5055320;28;20717;-60
2022/09/18 06:52:22;;;;;;;4.10;2.20;;;11.70;99.90;;;;;;5055457;28;20532;-61
2022/09/18 06:54:51;;;;;;;3.50;2.67;;;11.80;99.90;;;;;;5055786;28;20220;-60
2022/09/18 06:57:19;;;;;;;2.40;2.20;;;11.90;99.90;;;;;;5053991;28;20200;-60
2022/09/18 06:59:48;;;;;;;8.07;2.27;;;12.00;99.90;;;;;;5055416;28;20197;-61
2022/09/18 07:02:16;;;;;;;8.53;2.43;;;12.00;99.90;;;;;;5053843;28;20192;-60
2022/09/18 07:04:48;;;;;;;3.23;2.73;;;12.10;99.90;;;;;;5055082;28;20659;-61
2022/09/18 07:07:18;;;;;;;4.30;2.17;;;12.10;99.90;;;;;;5053730;28;20551;-60
2022/09/18 07:09:47;;;;;;;5.63;2.60;;;12.10;99.90;;;;;;5061277;28;20192;-60
2022/09/18 07:12:15;;;;;;;3.53;2.37;;;12.20;99.90;;;;;;5074784;28;20319;-60
2022/09/18 07:14:43;;;;;;;4.63;2.30;;;12.20;99.90;;;;;;5074949;28;20212;-60
2022/09/18 07:17:12;;;;;;;4.03;2.23;;;12.20;99.90;;;;;;5075315;28;20196;-60
2022/09/18 07:19:46;;;;;;;9.33;2.97;;;12.20;99.90;;;;;;5074635;28;20275;-60
2022/09/18 07:22:15;;;;;;;4.43;2.57;;;12.30;99.90;;;;;;5072601;28;20188;-61
2022/09/18 07:29:36;;;;;;;4.47;2.77;;;12.30;99.90;;;;;;5074506;28;20159;-60
2022/09/18 07:32:05;;;;;;;3.30;2.90;;;12.40;99.90;;;;;;5073185;28;20199;-61
2022/09/18 07:34:33;;;;;;;5.47;2.80;;;12.50;99.90;;;;;;5074481;28;20215;-60
2022/09/18 07:37:02;;;;;;;7.00;2.60;;;12.60;99.90;;;;;;5074936;28;20184;-60
2022/09/18 07:48:43;;;;;;;4.80;2.60;;;12.80;99.90;;;;;;5040339;28;20274;-60
2022/09/18 07:56:02;;;;;;;7.13;2.90;;;12.90;99.90;;;;;;5053962;28;20203;-60
2022/09/18 08:03:14;;;;;;;7.03;3.30;;;13.10;99.90;;;;;;5053801;28;20222;-60
2022/09/18 08:10:35;;;;;;;2.97;2.73;;;13.20;99.90;;;;;;5053798;28;20637;-60
2022/09/18 08:13:04;;;;;;;5.27;3.00;;;13.40;99.90;;;;;;5054448;28;20197;-61
2022/09/18 08:20:16;;;;;;;3.00;2.57;;;13.40;99.90;;;;;;5053987;28;20301;-60
2022/09/18 08:22:44;;;;;;;5.40;2.70;;;13.60;99.90;;;;;;5053465;28;20189;-60
2022/09/18 08:25:15;;;;;;;6.40;2.80;;;13.60;99.90;;;;;;5053356;28;20188;-60
2022/09/18 08:32:23;;;;;;;4.47;2.87;;;13.80;99.90;;;;;;5033747;28;20157;-60
2022/09/18 08:34:51;;;;;;;2.77;2.23;;;13.90;99.90;;;;;;5065570;28;20651;-60
2022/09/18 08:42:21;;;;;;;4.97;2.40;;;14.00;99.90;;;;;;5057478;28;20296;-61
2022/09/18 08:49:34;;;;;;;3.50;2.10;;;14.00;99.90;;;;;;5053362;28;20271;-61
2022/09/18 08:56:48;;;;;;;2.97;2.13;;;14.10;99.90;;;;;;5053158;28;20266;-60
2022/09/18 08:59:25;;;;;;;4.27;2.50;;;14.20;99.90;;;;;;5053494;28;20192;-59
2022/09/18 09:11:17;;;;;;;5.17;2.70;;;14.50;99.90;;;;;;5053215;28;20161;-60
2022/09/18 09:23:02;;;;;;;4.47;2.50;;;14.70;99.90;;;;;;5053118;28;20175;-60
2022/09/18 09:34:54;;;;;;;3.50;2.40;;;14.80;99.90;;;;;;5052845;28;20172;-61
2022/09/18 09:42:06;;;;;;;4.20;2.50;;;14.90;99.90;;;;;;5072486;28;20309;-60
2022/09/18 09:49:24;;;;;;;4.23;2.27;;;15.80;99.90;;;;;;5076951;28;20499;-60
2022/09/18 09:52:02;;;;;;;4.03;2.30;;;16.00;99.90;;;;;;5075420;28;20544;-61
2022/09/18 09:59:33;;;;;;;3.13;2.33;;;16.20;99.90;;;;;;5076305;28;20662;-60
2022/09/18 10:06:53;;;;;;;3.00;2.27;;;16.50;99.90;;;;;;5076221;28;20298;-60
2022/09/18 10:09:53;;;;;;;4.83;2.10;;;16.90;99.90;;;;;;5075136;28;20263;-60
2022/09/18 10:17:02;;;;;;;4.40;2.57;;;16.80;99.90;;;;;;5055891;28;20303;-60
2022/09/18 10:19:36;;;;;;;4.33;2.50;;;16.90;99.90;;;;;;5056119;28;20235;-60
2022/09/18 10:22:09;;;;;;;5.17;2.47;;;17.00;99.90;;;;;;5088353;28;20184;-60
2022/09/18 10:33:55;;;;;;;2.30;1.93;;;16.70;99.90;;;;;;5055802;28;20171;-60
2022/09/18 10:41:21;;;;;;;2.50;2.07;;;16.60;99.90;;;;;;5056003;28;20235;-60
2022/09/18 10:43:54;;;;;;;2.83;1.90;;;16.30;99.90;;;;;;5055170;28;20239;-60
2022/09/18 10:51:04;;;;;;;3.17;1.57;;;16.50;99.90;;;;;;5055377;28;20176;-63
2022/09/18 10:53:33;;;;;;;2.47;1.70;;;16.70;99.90;;;;;;5062192;28;20649;-60
2022/09/18 11:00:56;;;;;;;1.80;1.70;;;16.90;99.90;;;;;;5055241;28;20595;-60
2022/09/18 11:07:06;;;;;;;1.40;1.40;;;17.10;99.90;;;;;;5055194;28;20636;-60
2022/09/18 11:14:22;;;;;;;3.87;1.30;;;16.70;99.90;;;;;;5055570;28;20286;-62
2022/09/18 11:16:52;;;;;;;1.10;1.10;;;16.70;99.90;;;;;;5055013;28;20221;-63
2022/09/18 11:24:16;;;;;;;1.70;1.20;;;17.10;99.90;;;;;;5054661;28;20219;-62
2022/09/18 11:35:59;;;;;;;1.90;1.10;;;16.60;99.90;;;;;;5054796;28;20191;-62
2022/09/18 11:43:21;;;;;;;1.53;1.50;;;16.80;99.90;;;;;;5054458;28;20204;-62
2022/09/18 11:46:40;;;;;;;2.27;2.10;;;17.00;99.90;;;;;;5054501;28;20193;-61
2022/09/18 11:54:03;;;;;;;3.37;1.07;;;18.30;99.90;;;;;;5054581;28;20159;-62
2022/09/18 11:56:37;;;;;;;0.93;0.90;;;18.40;99.90;;;;;;5068331;28;20302;-59
2022/09/18 11:59:15;;;;;;;1.00;1.00;;;18.10;99.90;;;;;;5074066;28;20524;-60
2022/09/18 12:05:55;;;;;;;1.80;1.00;;;18.00;99.90;;;;;;5069268;28;20229;-60
2022/09/18 12:08:56;;;;;;;1.90;1.10;;;17.80;99.90;;;;;;5072171;28;20195;-61
2022/09/18 12:16:15;;;;;;;2.87;1.20;;;17.30;99.90;;;;;;5073828;28;20226;-60
2022/09/18 12:18:55;;;;;;;1.03;1.03;;;16.90;99.90;;;;;;5073919;28;20203;-61
2022/09/18 12:26:07;;;;;;;1.80;1.10;;;16.60;99.90;;;;;;5053723;28;20199;-62
2022/09/18 12:33:34;;;;;;;1.27;1.00;;;16.50;99.90;;;;;;5053719;28;20235;-61
2022/09/18 12:40:37;;;;;;;0.93;0.93;;;17.20;99.90;;;;;;5053275;28;20176;-59
2022/09/18 12:43:25;;;;;;;2.37;1.30;;;17.40;99.90;;;;;;5053546;28;20579;-60
2022/09/18 12:55:13;;;;;;;2.10;1.00;;;16.70;99.90;;;;;;5053603;28;20685;-62
2022/09/18 13:02:44;;;;;;;2.87;1.03;;;17.60;99.90;;;;;;5056729;28;20246;-62
2022/09/18 13:05:23;;;;;;;1.47;1.20;;;18.00;99.90;;;;;;5072200;28;20291;-61
2022/09/18 13:12:42;;;;;;;2.23;0.73;;;18.20;99.90;;;;;;5073298;28;20190;-62
2022/09/18 13:23:45;;;;;;;2.47;0.73;;;18.90;99.90;;;;;;5056729;28;20160;-62
2022/09/18 13:26:15;;;;;;;0.77;0.70;;;18.60;99.90;;;;;;5058847;28;20195;-59
2022/09/18 13:33:25;;;;;;;0.93;0.80;;;18.20;99.90;;;;;;5056978;28;20516;-60
2022/09/18 13:35:56;;;;;;;5.90;1.00;;;17.80;99.90;;;;;;5057250;28;20644;-59
2022/09/18 13:38:28;;;;;;;0.87;0.80;;;17.60;99.90;;;;;;5055682;28;20200;-60
2022/09/18 13:41:00;;;;;;;0.80;0.80;;;17.50;99.90;;;;;;5056737;28;20200;-59
2022/09/18 13:43:40;;;;;;;0.70;0.70;;;17.50;99.90;;;;;;5055024;28;20224;-59
2022/09/18 13:50:57;;;;;;;1.33;0.77;;;18.00;99.90;;;;;;5064850;28;20167;-60
2022/09/18 13:53:40;;;;;;;4.30;0.90;;;18.00;99.90;;;;;;5059427;28;20533;-59
2022/09/18 13:56:10;;;;;;;0.73;0.73;;;17.90;99.90;;;;;;5056163;28;20196;-60
2022/09/18 13:58:51;;;;;;;0.80;0.80;;;17.80;99.90;;;;;;5063359;28;20536;-61
2022/09/18 14:01:53;;;;;;;3.60;1.13;;;17.70;99.90;;;;;;5076337;28;20192;-61
2022/09/18 14:04:58;;;;;;;3.53;0.97;;;17.60;99.90;;;;;;5076418;28;20192;-62
2022/09/18 14:07:49;;;;;;;1.17;1.17;;;17.50;99.90;;;;;;5055797;28;20215;-62
2022/09/18 14:10:27;;;;;;;2.17;1.13;;;17.60;99.90;;;;;;5076652;28;20554;-62
2022/09/18 14:13:31;;;;;;;2.70;0.80;;;17.50;99.90;;;;;;5058177;28;20194;-61
2022/09/18 14:16:04;;;;;;;4.13;1.27;;;17.40;99.90;;;;;;5058354;28;20212;-61
2022/09/18 14:18:38;;;;;;;1.50;0.90;;;17.30;99.90;;;;;;5076085;28;20203;-61
2022/09/18 14:21:20;;;;;;;1.30;1.20;;;17.20;99.90;;;;;;5076350;28;20196;-62
2022/09/18 14:24:39;;;;;;;1.27;1.27;;;17.00;99.90;;;;;;5074745;28;20204;-63
2022/09/18 14:27:30;;;;;;;2.00;1.13;;;16.90;99.90;;;;;;4987522;28;20213;-61
2022/09/18 14:30:03;;;;;;;1.20;1.10;;;16.70;99.90;;;;;;5014326;28;20206;-62
2022/09/18 14:32:32;;;;;;;2.93;0.90;;;16.60;99.90;;;;;;5040720;28;20227;-63
2022/09/18 14:35:26;;;;;;;1.00;1.00;;;16.60;99.90;;;;;;5055942;28;20612;-61
2022/09/18 14:42:12;;;;;;;2.00;1.10;;;16.80;99.90;;;;;;5066709;28;20241;-62
2022/09/18 14:49:32;;;;;;;1.10;0.90;;;16.80;99.90;;;;;;5055624;28;20164;-61
2022/09/18 14:52:40;;;;;;;1.00;1.00;;;16.90;99.90;;;;;;5055286;28;20200;-60
2022/09/18 14:55:13;;;;;;;1.10;0.90;;;16.90;99.90;;;;;;5067727;28;20205;-62
2022/09/18 14:57:45;;;;;;;3.53;1.07;;;16.90;99.90;;;;;;5075140;28;20222;-60
2022/09/18 15:09:35;;;;;;;1.40;1.33;;;16.80;99.90;;;;;;5068756;28;20265;-62
2022/09/18 15:16:55;;;;;;;2.67;1.40;;;16.90;99.90;;;;;;5068736;28;20334;-62
2022/09/18 15:19:23;;;;;;;2.40;2.20;;;16.70;99.90;;;;;;5074794;28;20203;-63
2022/09/18 15:26:48;;;;;;;4.30;1.10;;;16.50;99.90;;;;;;5063675;28;20183;-61
2022/09/18 15:38:42;;;;;;;2.30;1.20;;;16.40;99.90;;;;;;5054385;28;20219;-61
2022/09/18 15:41:30;;;;;;;3.73;1.80;;;16.40;99.90;;;;;;5086938;28;20522;-62
2022/09/18 15:44:00;;;;;;;3.90;1.43;;;16.40;99.90;;;;;;5068439;28;20238;-61
2022/09/18 15:51:16;;;;;;;2.30;1.43;;;16.40;99.90;;;;;;5054254;28;20170;-62
2022/09/18 15:54:04;;;;;;;1.50;1.40;;;16.40;99.90;;;;;;5053121;28;20712;-61
2022/09/18 15:56:33;;;;;;;4.70;1.93;;;16.30;99.90;;;;;;5054013;28;20222;-61
2022/09/18 16:03:48;;;;;;;2.67;1.13;;;16.20;99.90;;;;;;5054003;28;20552;-60
2022/09/18 16:06:26;;;;;;;3.57;1.50;;;16.10;99.90;;;;;;5086442;28;20179;-62
2022/09/18 16:08:56;;;;;;;2.80;1.27;;;16.00;99.90;;;;;;5054061;28;20182;-62
2022/09/18 16:16:31;;;;;;;2.57;1.53;;;16.00;99.90;;;;;;5054000;28;20299;-62
2022/09/18 16:19:12;;;;;;;2.47;1.47;;;16.00;99.90;;;;;;5018832;28;20767;-63
2022/09/18 16:21:42;;;;;;;2.37;1.43;;;15.90;99.90;;;;;;5053892;28;20208;-62
2022/09/18 16:28:57;;;;;;;5.27;1.60;;;15.90;99.90;;;;;;5053629;28;20169;-62
2022/09/18 16:31:29;;;;;;;5.90;3.00;;;15.90;99.90;;;;;;5053522;28;20240;-63
2022/09/18 16:34:00;;;;;;;3.87;1.43;;;15.80;99.90;;;;;;5054078;28;20178;-62
2022/09/18 16:41:13;;;;;;;3.53;1.40;;;15.80;99.90;;;;;;5053805;28;20701;-62
2022/09/18 16:43:41;;;;;;;4.20;1.33;;;15.70;99.90;;;;;;5053219;28;20703;-61
2022/09/18 16:46:09;;;;;;;3.13;1.40;;;15.70;99.90;;;;;;5051886;28;20209;-61
2022/09/18 16:53:28;;;;;;;2.33;1.57;;;15.60;99.90;;;;;;5053052;28;20651;-62
2022/09/18 16:55:58;;;;;;;2.10;1.30;;;15.60;99.90;;;;;;5051255;28;20194;-61
2022/09/18 16:58:29;;;;;;;1.70;1.47;;;15.60;99.90;;;;;;5052992;28;20214;-63
2022/09/18 17:05:42;;;;;;;1.40;1.30;;;15.50;99.90;;;;;;5053591;28;20166;-60
2022/09/18 17:08:10;;;;;;;1.60;1.37;;;15.50;99.90;;;;;;5053008;28;20554;-60
2022/09/18 17:10:39;;;;;;;1.90;1.47;;;15.50;99.90;;;;;;5053648;28;20201;-61
2022/09/18 17:17:39;;;;;;;2.53;1.80;;;15.50;99.90;;;;;;5053623;28;20242;-62
2022/09/18 17:24:51;;;;;;;2.50;1.60;;;15.40;99.90;;;;;;5053039;28;20154;-61
2022/09/18 17:32:08;;;;;;;3.57;1.70;;;15.40;99.90;;;;;;5052982;28;20176;-59
2022/09/18 17:39:22;;;;;;;5.60;1.60;;;15.00;99.90;;;;;;5052990;28;20208;-59
2022/09/18 18:00:04;;;;;;;3.00;1.53;;;13.50;99.90;;;;;;5053078;28;20274;-59
2022/09/18 18:07:17;;;;;;;4.80;1.50;;;13.30;99.90;;;;;;5055915;28;20156;-62
2022/09/18 18:14:24;;;;;;;5.97;1.83;;;13.20;99.90;;;;;;5056680;28;20212;-60
2022/09/18 18:21:39;;;;;;;2.10;1.30;;;13.20;99.90;;;;;;5056496;28;20299;-59
2022/09/18 18:28:44;;;;;;;4.17;1.63;;;13.20;99.90;;;;;;5055843;28;20252;-60
2022/09/18 18:36:08;;;;;;;3.97;1.80;;;13.00;99.90;;;;;;5056320;28;20152;-60
2022/09/18 18:43:16;;;;;;;9.23;4.93;;;12.70;99.90;;;;;;5075911;28;20510;-60
2022/09/18 18:55:00;;;;;;;8.27;2.60;;;12.40;99.90;;;;;;5075592;28;20166;-60
2022/09/18 18:57:29;;;;;;;5.57;1.87;;;12.40;99.90;;;;;;5074617;28;20188;-61
2022/09/18 19:04:43;;;;;;;6.67;1.70;;;12.30;99.90;;;;;;5075189;28;20163;-60
2022/09/18 19:07:11;;;;;;;2.37;1.80;;;12.30;99.90;;;;;;5075208;28;20278;-60
2022/09/18 19:09:40;;;;;;;8.20;3.13;;;12.20;99.90;;;;;;5075274;28;20631;-60
2022/09/18 19:16:47;;;;;;;6.13;2.40;;;12.20;99.90;;;;;;5074655;28;20768;-62
2022/09/18 19:24:02;;;;;;;4.90;2.50;;;12.20;99.90;;;;;;5074531;28;20665;-61
2022/09/18 19:26:30;;;;;;;4.90;1.97;;;12.20;99.90;;;;;;5074717;28;20196;-61
2022/09/18 19:33:36;;;;;;;5.97;2.37;;;12.20;99.90;;;;;;5075046;28;20231;-62
2022/09/18 19:36:06;;;;;;;5.13;2.50;;;12.10;99.90;;;;;;5073443;28;20908;-61
2022/09/18 19:38:35;;;;;;;3.93;2.03;;;12.10;99.90;;;;;;5074692;28;20307;-61
2022/09/18 19:41:12;;;;;;;2.37;1.93;;;12.10;99.90;;;;;;5074135;28;20274;-61
2022/09/18 19:57:41;;;;;;;4.50;2.27;;;11.90;99.90;;;;;;5054256;28;20164;-61
2022/09/18 20:00:11;;;;;;;5.93;1.93;;;11.90;99.90;;;;;;5072942;28;20196;-62
2022/09/18 20:02:40;;;;;;;4.77;1.93;;;11.90;99.90;;;;;;5073823;28;20220;-61
2022/09/18 20:05:09;;;;;;;2.97;1.73;;;11.80;99.90;;;;;;5073794;28;20194;-61
2022/09/18 20:07:38;;;;;;;5.43;2.13;;;11.80;99.90;;;;;;5073795;28;20188;-61
2022/09/18 20:10:08;;;;;;;6.27;2.03;;;11.70;99.90;;;;;;5074136;28;20191;-61
2022/09/18 20:12:41;;;;;;;7.17;1.90;;;11.70;99.90;;;;;;5073946;28;20204;-61
2022/09/18 20:15:10;;;;;;;6.80;2.07;;;11.70;99.90;;;;;;5073911;28;20208;-61
2022/09/18 20:17:39;;;;;;;4.83;2.03;;;11.70;99.90;;;;;;5073665;28;20198;-61
2022/09/18 20:20:09;;;;;;;6.67;2.63;;;11.60;99.90;;;;;;5073640;28;20248;-61
2022/09/18 20:22:43;;;;;;;7.60;2.07;;;11.70;99.90;;;;;;5073944;28;20184;-61
2022/09/18 20:25:12;;;;;;;9.10;1.90;;;11.70;99.90;;;;;;5074008;28;20199;-61